< < Back
Terminal Aerodrome Forecast


Current Version              Previous Versions:   1  2  3  4  5  6  7  8  9  

Terminal Aerodrome Forecast

569
FTUS42 KGSP 031122
TAFGSP
TAF
KGSP 031122Z 0312/0412 21005KT P6SM -SHRA VCTS OVC008CB
     FM031500 23011KT P6SM -SHRA BKN024 OVC100
     FM031600 23012KT P6SM -SHRA VCTS BKN060CB OVC120
     FM032000 24015G25KT P6SM -SHRA VCTS BKN040CB OVC120
     FM040000 24009KT P6SM BKN120=



Latest METAR

415
SAUS70 KWBC 031200 RRA
MTRGSP
METAR KGSP 031153Z 21008KT 7SM -RA SCT120 23/21 A2991 RMK AO2 RAB27
SLP117 P0000 60000 70001 T02280211 10228 20211 58000


USA.gov is the U.S. government's official web portal to all federal, state and local government web resources and services.